createdAt,value
2022-08-07T00:02:35.297Z,17.50
2022-08-07T00:04:17.290Z,17.50
2022-08-07T00:06:52.530Z,17.40
2022-08-07T00:09:22.624Z,17.40
2022-08-07T00:11:55.729Z,17.40
2022-08-07T00:14:31.373Z,17.38
2022-08-07T00:17:03.205Z,17.30
2022-08-07T00:20:00.077Z,17.30
2022-08-07T00:22:24.649Z,17.30
2022-08-07T00:25:15.698Z,17.20
2022-08-07T00:27:53.324Z,17.20
2022-08-07T00:30:27.331Z,17.18
2022-08-07T00:33:02.261Z,17.10
2022-08-07T00:35:30.866Z,17.10
2022-08-07T00:38:03.458Z,17.00
2022-08-07T00:40:39.123Z,17.00
2022-08-07T00:43:59.538Z,17.00
2022-08-07T00:46:02.619Z,17.00
2022-08-07T00:48:32.142Z,17.00
2022-08-07T00:51:02.792Z,16.90
2022-08-07T00:53:39.059Z,16.90
2022-08-07T00:56:18.661Z,16.90
2022-08-07T00:58:49.963Z,16.80
2022-08-07T01:01:20.467Z,16.80
2022-08-07T01:03:55.572Z,16.70
2022-08-07T01:06:31.816Z,16.70
2022-08-07T01:09:01.579Z,16.60
2022-08-07T01:12:23.499Z,16.60
2022-08-07T01:14:28.690Z,16.60
2022-08-07T01:16:58.187Z,16.60
2022-08-07T01:19:32.143Z,16.60
2022-08-07T01:22:03.082Z,16.50
2022-08-07T01:24:36.473Z,16.40
2022-08-07T01:27:04.994Z,16.40
2022-08-07T01:29:34.359Z,16.40
2022-08-07T01:32:12.296Z,16.40
2022-08-07T01:34:47.298Z,16.40
2022-08-07T01:37:19.007Z,16.30
2022-08-07T01:39:49.273Z,16.30
2022-08-07T01:42:39.624Z,16.30
2022-08-07T01:45:36.403Z,16.26
2022-08-07T01:48:29.783Z,16.30
2022-08-07T01:51:58.656Z,16.20
2022-08-07T01:54:11.679Z,16.20
2022-08-07T01:57:02.392Z,16.12
2022-08-07T02:00:01.969Z,16.10
2022-08-07T02:03:20.992Z,16.10
2022-08-07T02:05:59.928Z,16.10
2022-08-07T02:08:37.928Z,16.10
2022-08-07T02:11:11.478Z,16.00
2022-08-07T02:14:02.673Z,16.00
2022-08-07T02:16:33.655Z,16.00
2022-08-07T02:20:05.551Z,16.00
2022-08-07T02:21:58.828Z,16.00
2022-08-07T02:24:29.921Z,16.00
2022-08-07T02:27:02.555Z,16.00
2022-08-07T02:29:34.463Z,15.98
2022-08-07T02:32:14.924Z,15.90
2022-08-07T02:34:51.217Z,15.90
2022-08-07T02:37:21.487Z,15.90
2022-08-07T02:40:02.150Z,15.86
2022-08-07T02:42:40.318Z,15.72
2022-08-07T02:45:58.748Z,15.70
2022-08-07T02:48:01.707Z,15.70
2022-08-07T02:50:33.133Z,15.60
2022-08-07T02:53:31.485Z,15.52
2022-08-07T02:56:21.110Z,15.50
2022-08-07T02:58:54.212Z,15.40
2022-08-07T03:01:36.298Z,15.32
2022-08-07T03:04:12.322Z,15.30
2022-08-07T03:06:48.254Z,15.22
2022-08-07T03:09:43.455Z,15.20
2022-08-07T03:12:16.167Z,15.14
2022-08-07T03:14:52.670Z,15.10
2022-08-07T03:17:22.104Z,15.00
2022-08-07T03:19:55.550Z,15.00
2022-08-07T03:22:29.560Z,15.00
2022-08-07T03:25:01.101Z,15.00
2022-08-07T03:27:58.887Z,14.90
2022-08-07T03:30:24.524Z,14.90
2022-08-07T03:32:58.669Z,14.86
2022-08-07T03:35:43.483Z,14.82
2022-08-07T03:38:20.950Z,14.80
2022-08-07T03:40:57.123Z,14.80
2022-08-07T03:43:32.312Z,14.76
2022-08-07T03:46:03.879Z,14.70
2022-08-07T03:49:01.936Z,14.70
2022-08-07T03:51:31.015Z,14.70
2022-08-07T03:54:35.590Z,14.70
2022-08-07T03:57:07.530Z,14.80
2022-08-07T03:59:36.803Z,14.80
2022-08-07T04:02:15.155Z,14.78
2022-08-07T04:04:45.247Z,14.80
2022-08-07T04:07:36.024Z,14.88
2022-08-07T04:10:05.193Z,15.00
2022-08-07T04:12:35.319Z,15.00
2022-08-07T04:15:06.281Z,15.00
2022-08-07T04:18:31.190Z,15.00
2022-08-07T04:20:23.477Z,15.00
2022-08-07T04:23:01.756Z,15.00
2022-08-07T04:25:35.921Z,15.10
2022-08-07T04:28:10.360Z,15.10
2022-08-07T04:30:55.254Z,15.18
2022-08-07T04:33:28.764Z,15.20
2022-08-07T04:35:59.963Z,15.30
2022-08-07T04:38:37.022Z,15.30
2022-08-07T04:41:05.423Z,15.40
2022-08-07T04:44:12.716Z,15.50
2022-08-07T04:47:04.777Z,15.60
2022-08-07T04:50:04.559Z,15.70
2022-08-07T04:52:46.676Z,15.80
2022-08-07T04:58:11.259Z,15.90
2022-08-07T04:59:18.569Z,16.00
2022-08-07T05:02:03.712Z,16.10
2022-08-07T05:05:52.764Z,16.20
2022-08-07T05:09:00.126Z,16.28
2022-08-07T05:12:02.351Z,16.38
2022-08-07T05:14:53.825Z,16.40
2022-08-07T05:17:51.989Z,16.50
2022-08-07T05:20:27.188Z,16.60
2022-08-07T05:23:06.735Z,16.70
2022-08-07T05:26:10.840Z,16.90
2022-08-07T05:28:35.561Z,17.08
2022-08-07T05:31:05.609Z,17.18
2022-08-07T05:33:37.301Z,17.24
2022-08-07T05:36:12.065Z,17.36
2022-08-07T05:39:00.331Z,17.56
2022-08-07T05:42:01.824Z,18.40
2022-08-07T05:44:29.703Z,19.42
2022-08-07T05:47:00.254Z,20.14
2022-08-07T05:49:40.624Z,20.80
2022-08-07T05:52:11.795Z,21.12
2022-08-07T05:54:44.334Z,21.40
2022-08-07T05:57:23.870Z,21.78
2022-08-07T05:59:57.757Z,22.10
2022-08-07T06:02:33.241Z,22.58
2022-08-07T06:05:15.836Z,22.90
2022-08-07T06:08:12.961Z,22.70
2022-08-07T06:10:37.449Z,22.44
2022-08-07T06:13:06.419Z,22.20
2022-08-07T06:15:43.220Z,21.96
2022-08-07T06:18:14.723Z,21.74
2022-08-07T06:20:49.831Z,21.60
2022-08-07T06:24:36.930Z,21.90
2022-08-07T06:26:27.427Z,22.70
2022-08-07T06:29:00.096Z,23.54
2022-08-07T06:31:47.252Z,24.00
2022-08-07T06:34:20.482Z,24.10
2022-08-07T06:36:52.221Z,24.08
2022-08-07T06:40:15.860Z,24.48
2022-08-07T06:42:37.026Z,25.50
2022-08-07T06:45:19.348Z,26.08
2022-08-07T06:47:57.258Z,27.12
2022-08-07T06:50:30.657Z,27.68
2022-08-07T06:53:01.082Z,28.00
2022-08-07T06:55:48.079Z,27.80
2022-08-07T06:58:24.624Z,27.64
2022-08-07T07:01:07.261Z,26.84
2022-08-07T07:03:48.588Z,26.16
2022-08-07T07:06:26.303Z,25.54
2022-08-07T07:08:56.759Z,24.96
2022-08-07T07:12:08.622Z,24.42
2022-08-07T07:14:18.150Z,23.90
2022-08-07T07:16:53.435Z,23.48
2022-08-07T07:19:56.198Z,23.04
2022-08-07T07:22:35.836Z,22.62
2022-08-07T07:26:35.183Z,22.40
2022-08-07T07:28:29.728Z,22.10
2022-08-07T07:31:25.110Z,21.88
2022-08-07T07:34:04.990Z,21.60
2022-08-07T07:36:36.143Z,21.40
2022-08-07T07:39:10.351Z,21.30
2022-08-07T07:42:01.916Z,21.30
2022-08-07T07:44:29.675Z,21.20
2022-08-07T07:47:14.089Z,21.20
2022-08-07T07:50:34.217Z,21.10
2022-08-07T07:52:41.184Z,21.10
2022-08-07T07:55:10.940Z,21.10
2022-08-07T07:57:50.349Z,21.10
2022-08-07T08:00:31.446Z,21.16
2022-08-07T08:03:16.375Z,21.20
2022-08-07T08:05:54.187Z,21.20
2022-08-07T08:08:35.708Z,21.20
2022-08-07T08:11:08.045Z,21.20
2022-08-07T08:13:54.165Z,21.20
2022-08-07T08:16:35.483Z,21.20
2022-08-07T08:19:17.298Z,21.20
2022-08-07T08:22:09.792Z,21.20
2022-08-07T08:25:25.056Z,21.20
2022-08-07T08:28:01.767Z,21.20
2022-08-07T08:30:42.681Z,21.20
2022-08-07T08:33:20.550Z,21.10
2022-08-07T08:35:54.740Z,21.20
2022-08-07T08:38:30.037Z,21.20
2022-08-07T08:41:57.022Z,21.20
2022-08-07T08:44:41.253Z,21.20
2022-08-07T08:47:47.245Z,20.92
2022-08-07T08:50:40.096Z,20.90
2022-08-07T08:53:35.023Z,21.00
2022-08-07T08:56:26.174Z,20.96
2022-08-07T08:59:13.872Z,21.00
2022-08-07T09:02:11.031Z,20.96
2022-08-07T09:04:50.020Z,20.90
2022-08-07T09:07:46.221Z,20.90
2022-08-07T09:10:58.459Z,20.90
2022-08-07T09:13:47.059Z,21.00
2022-08-07T09:16:39.350Z,20.84
2022-08-07T09:19:53.471Z,20.80
2022-08-07T09:24:28.570Z,20.90
2022-08-07T09:25:34.608Z,20.78
2022-08-07T09:30:03.417Z,20.80
2022-08-07T09:31:25.177Z,20.70
2022-08-07T09:34:39.124Z,20.70
2022-08-07T09:37:48.471Z,20.70
2022-08-07T09:41:03.551Z,20.70
2022-08-07T09:44:05.871Z,20.70
2022-08-07T09:47:50.720Z,20.80
2022-08-07T09:50:19.210Z,20.80
2022-08-07T09:53:01.923Z,20.80
2022-08-07T09:56:37.171Z,20.90
2022-08-07T09:59:35.696Z,21.00
2022-08-07T10:02:55.226Z,21.00
2022-08-07T10:06:11.807Z,21.00
2022-08-07T10:09:17.271Z,21.00
2022-08-07T10:12:45.948Z,21.00
2022-08-07T10:15:44.122Z,20.90
2022-08-07T10:18:35.500Z,20.80
2022-08-07T10:22:33.543Z,20.90
2022-08-07T10:25:22.848Z,21.00
2022-08-07T10:28:23.571Z,21.10
2022-08-07T10:30:57.355Z,21.20
2022-08-07T10:34:06.653Z,21.20
2022-08-07T10:37:19.035Z,21.30
2022-08-07T10:40:36.344Z,21.40
2022-08-07T10:43:13.219Z,21.50
2022-08-07T10:45:58.068Z,21.50
2022-08-07T10:49:10.384Z,21.50
2022-08-07T10:52:02.292Z,21.56
2022-08-07T10:55:01.898Z,21.60
2022-08-07T10:58:10.179Z,21.62
2022-08-07T11:00:56.441Z,21.70
2022-08-07T11:03:51.184Z,21.62
2022-08-07T11:06:32.122Z,21.50
2022-08-07T11:09:12.800Z,21.50
2022-08-07T11:12:13.829Z,21.50
2022-08-07T11:14:59.921Z,21.60
2022-08-07T11:18:12.514Z,21.70
2022-08-07T11:20:51.541Z,21.70
2022-08-07T11:23:45.440Z,21.70
2022-08-07T11:26:43.348Z,21.82
2022-08-07T11:30:17.838Z,21.90
2022-08-07T11:33:15.082Z,21.90
2022-08-07T11:36:25.088Z,21.90
2022-08-07T11:39:20.752Z,21.90
2022-08-07T11:42:03.511Z,21.90
2022-08-07T11:45:15.728Z,22.00
2022-08-07T11:48:18.219Z,22.10
2022-08-07T11:51:44.896Z,22.20
2022-08-07T11:54:54.917Z,22.30
2022-08-07T11:58:00.670Z,22.40
2022-08-07T12:01:02.631Z,22.40
2022-08-07T12:04:20.700Z,22.50
2022-08-07T12:07:27.564Z,22.50
2022-08-07T12:10:23.410Z,22.60
2022-08-07T12:13:35.275Z,22.60
2022-08-07T12:16:29.644Z,22.70
2022-08-07T12:19:21.444Z,22.80
2022-08-07T12:22:39.445Z,22.80
2022-08-07T12:26:02.953Z,22.90
2022-08-07T12:29:03.720Z,22.94
2022-08-07T12:32:03.706Z,23.10
2022-08-07T12:34:38.906Z,23.20
2022-08-07T12:37:16.927Z,23.30
2022-08-07T12:39:53.773Z,23.40
2022-08-07T12:42:28.526Z,23.50
2022-08-07T12:45:09.054Z,23.54
2022-08-07T12:47:57.522Z,23.70
2022-08-07T12:50:48.954Z,23.80
2022-08-07T12:53:17.670Z,23.90
2022-08-07T12:56:10.109Z,23.98
2022-08-07T12:58:46.846Z,24.10
2022-08-07T13:01:32.473Z,24.28
2022-08-07T13:04:31.869Z,24.40
2022-08-07T13:08:11.928Z,24.50
2022-08-07T13:10:53.970Z,24.60
2022-08-07T13:13:57.309Z,24.50
2022-08-07T13:16:40.086Z,24.60
2022-08-07T13:19:51.809Z,24.70
2022-08-07T13:22:36.262Z,24.80
2022-08-07T13:25:15.356Z,25.00
2022-08-07T13:28:11.076Z,25.20
2022-08-07T13:31:13.558Z,25.52
2022-08-07T13:34:34.508Z,25.86
2022-08-07T13:36:53.043Z,26.10
2022-08-07T13:40:34.019Z,26.42
2022-08-07T13:42:30.884Z,26.80
2022-08-07T13:46:07.388Z,27.08
2022-08-07T13:48:06.201Z,27.40
2022-08-07T13:50:44.854Z,27.72
2022-08-07T13:54:00.091Z,27.70
2022-08-07T13:56:35.890Z,28.20
2022-08-07T13:59:24.159Z,28.20
2022-08-07T14:02:03.973Z,28.20
2022-08-07T14:04:49.592Z,30.86
2022-08-07T14:07:27.821Z,33.54
2022-08-07T14:10:00.876Z,35.84
2022-08-07T14:13:02.807Z,37.94
2022-08-07T14:15:42.074Z,40.16
2022-08-07T14:18:30.458Z,40.52
2022-08-07T14:22:00.654Z,42.16
2022-08-07T14:24:15.678Z,43.80
2022-08-07T14:26:51.237Z,43.36
2022-08-07T14:32:19.186Z,41.72
2022-08-07T14:34:49.146Z,42.32
2022-08-07T14:37:36.286Z,43.04
2022-08-07T14:40:26.365Z,41.40
2022-08-07T14:43:59.383Z,41.22
2022-08-07T14:45:54.573Z,40.56
2022-08-07T14:48:33.359Z,38.94
2022-08-07T14:51:07.419Z,37.16
2022-08-07T14:54:05.555Z,35.46
2022-08-07T14:56:34.245Z,33.90
2022-08-07T14:59:13.812Z,32.62
2022-08-07T15:01:58.831Z,31.42
2022-08-07T15:04:28.872Z,30.38
2022-08-07T15:07:00.974Z,29.34
2022-08-07T15:09:59.811Z,28.84
2022-08-07T15:15:24.526Z,27.80
2022-08-07T15:17:59.597Z,27.46
2022-08-07T15:20:55.497Z,27.10
2022-08-07T15:26:32.059Z,26.30
2022-08-07T15:30:09.463Z,25.90
2022-08-07T15:34:50.806Z,25.30
2022-08-07T15:38:04.330Z,25.00
2022-08-07T15:40:35.068Z,24.74
2022-08-07T15:43:53.604Z,24.50
2022-08-07T15:46:37.193Z,24.40
2022-08-07T15:49:12.885Z,24.16
2022-08-07T15:54:39.706Z,23.90
2022-08-07T15:57:28.020Z,23.82
2022-08-07T16:00:08.665Z,23.80
2022-08-07T16:02:57.951Z,23.70
2022-08-07T16:05:31.195Z,23.70
2022-08-07T16:08:30.742Z,23.60
2022-08-07T16:11:26.891Z,23.54
2022-08-07T16:14:09.258Z,23.46
2022-08-07T16:17:02.322Z,23.40
2022-08-07T16:19:59.132Z,23.30
2022-08-07T16:23:05.245Z,23.30
2022-08-07T16:26:02.499Z,23.10
2022-08-07T16:30:07.340Z,23.10
2022-08-07T16:32:03.994Z,23.00
2022-08-07T16:35:51.972Z,23.00
2022-08-07T16:38:04.323Z,23.10
2022-08-07T16:41:04.273Z,23.00
2022-08-07T16:44:40.541Z,23.00
2022-08-07T16:47:49.626Z,22.80
2022-08-07T16:50:52.633Z,22.70
2022-08-07T16:54:01.674Z,22.60
2022-08-07T16:56:40.234Z,22.60
2022-08-07T16:59:22.194Z,22.50
2022-08-07T17:02:03.176Z,22.40
2022-08-07T17:06:02.128Z,22.40
2022-08-07T17:08:00.662Z,22.30
2022-08-07T17:10:55.635Z,22.20
2022-08-07T17:14:18.254Z,22.20
2022-08-07T17:17:00.527Z,22.10
2022-08-07T17:20:01.534Z,22.10
2022-08-07T17:22:42.442Z,22.06
2022-08-07T17:25:20.117Z,22.00
2022-08-07T17:28:19.793Z,22.00
2022-08-07T17:31:17.334Z,21.96
2022-08-07T17:34:15.212Z,21.90
2022-08-07T17:36:58.325Z,21.90
2022-08-07T17:40:02.903Z,21.90
2022-08-07T17:42:59.249Z,21.80
2022-08-07T17:45:37.546Z,21.80
2022-08-07T17:48:16.864Z,21.70
2022-08-07T17:52:00.278Z,21.70
2022-08-07T17:55:05.683Z,21.68
2022-08-07T17:57:58.490Z,21.60
2022-08-07T18:00:34.646Z,21.54
2022-08-07T18:04:07.151Z,21.50
2022-08-07T18:06:38.221Z,21.40
2022-08-07T18:09:08.654Z,21.40
2022-08-07T18:12:27.763Z,21.36
2022-08-07T18:15:08.669Z,21.30
2022-08-07T18:18:46.908Z,21.20
2022-08-07T18:21:07.526Z,21.18
2022-08-07T18:24:34.031Z,21.10
2022-08-07T18:27:17.304Z,21.00
2022-08-07T18:30:36.784Z,20.90
2022-08-07T18:33:55.654Z,20.84
2022-08-07T18:36:41.934Z,20.80
2022-08-07T18:40:07.535Z,20.70
2022-08-07T18:42:54.843Z,20.60
2022-08-07T18:45:44.320Z,20.60
2022-08-07T18:50:18.940Z,20.50
2022-08-07T18:52:35.267Z,20.50
2022-08-07T18:55:43.096Z,20.40
2022-08-07T18:58:22.286Z,20.40
2022-08-07T19:01:03.857Z,20.34
2022-08-07T19:03:49.533Z,20.30
2022-08-07T19:06:51.357Z,20.20
2022-08-07T19:09:56.867Z,20.16
2022-08-07T19:12:59.546Z,20.10
2022-08-07T19:17:01.161Z,20.10
2022-08-07T19:19:32.031Z,20.00
2022-08-07T19:22:14.893Z,20.00
2022-08-07T19:24:48.824Z,19.90
2022-08-07T19:28:56.497Z,19.86
2022-08-07T19:31:02.069Z,19.80
2022-08-07T19:33:13.219Z,19.80
2022-08-07T19:35:51.769Z,19.80
2022-08-07T19:38:21.598Z,19.70
2022-08-07T19:40:55.900Z,19.70
2022-08-07T19:43:48.860Z,19.64
2022-08-07T19:46:26.672Z,19.60
2022-08-07T19:49:12.830Z,19.50
2022-08-07T19:51:51.873Z,19.50
2022-08-07T19:54:35.148Z,19.42
2022-08-07T19:58:01.821Z,19.40
2022-08-07T20:00:36.630Z,19.30
2022-08-07T20:03:34.620Z,19.20
2022-08-07T20:06:03.255Z,19.10
2022-08-07T20:08:35.861Z,19.10
2022-08-07T20:11:10.523Z,19.00
2022-08-07T20:13:50.392Z,18.94
2022-08-07T20:16:34.697Z,18.90
2022-08-07T20:19:10.026Z,18.80
2022-08-07T20:21:47.338Z,18.78
2022-08-07T20:24:30.060Z,18.70
2022-08-07T20:27:03.045Z,18.70
2022-08-07T20:29:57.450Z,18.66
2022-08-07T20:32:41.981Z,18.60
2022-08-07T20:35:21.797Z,18.50
2022-08-07T20:37:58.543Z,18.48
2022-08-07T20:40:40.467Z,18.40
2022-08-07T20:43:19.323Z,18.40
2022-08-07T20:46:26.823Z,18.30
2022-08-07T20:49:54.305Z,18.28
2022-08-07T20:51:36.043Z,18.20
2022-08-07T20:54:12.313Z,18.20
2022-08-07T20:56:49.982Z,18.16
2022-08-07T21:00:05.318Z,18.10
2022-08-07T21:02:38.377Z,18.08
2022-08-07T21:05:16.306Z,18.00
2022-08-07T21:07:49.936Z,18.00
2022-08-07T21:10:29.780Z,17.90
2022-08-07T21:13:06.414Z,17.90
2022-08-07T21:15:58.541Z,17.80
2022-08-07T21:18:34.230Z,17.80
2022-08-07T21:21:04.251Z,17.70
2022-08-07T21:23:53.363Z,17.70
2022-08-07T21:26:45.435Z,17.60
2022-08-07T21:29:33.735Z,17.60
2022-08-07T21:32:43.660Z,17.60
2022-08-07T21:35:34.645Z,17.50
2022-08-07T21:38:27.806Z,17.44
2022-08-07T21:41:38.027Z,17.40
2022-08-07T21:44:42.478Z,17.40
2022-08-07T21:48:28.468Z,17.34
2022-08-07T21:51:25.959Z,17.30
2022-08-07T21:54:09.379Z,17.40
2022-08-07T21:56:52.019Z,17.40
2022-08-07T22:00:04.404Z,17.30
2022-08-07T22:02:49.076Z,17.30
2022-08-07T22:05:44.878Z,17.30
2022-08-07T22:08:18.794Z,17.32
2022-08-07T22:10:57.533Z,17.30
2022-08-07T22:13:50.386Z,17.30
2022-08-07T22:16:39.095Z,17.30
2022-08-07T22:19:23.787Z,17.30
2022-08-07T22:22:21.152Z,17.20
2022-08-07T22:25:15.637Z,17.20
2022-08-07T22:28:30.121Z,17.10
2022-08-07T22:31:59.201Z,17.08
2022-08-07T22:34:53.507Z,17.00
2022-08-07T22:38:04.285Z,17.00
2022-08-07T22:40:42.253Z,16.90
2022-08-07T22:43:19.787Z,16.90
2022-08-07T22:47:02.165Z,16.82
2022-08-07T22:49:37.827Z,16.82
2022-08-07T22:52:37.722Z,16.90
2022-08-07T22:55:31.005Z,16.90
2022-08-07T22:58:03.161Z,16.88
2022-08-07T23:00:56.067Z,16.90
2022-08-07T23:04:03.498Z,16.80
2022-08-07T23:06:39.672Z,16.80
2022-08-07T23:10:04.075Z,16.80
2022-08-07T23:13:00.241Z,16.70
2022-08-07T23:16:06.913Z,16.70
2022-08-07T23:18:33.166Z,16.60
2022-08-07T23:21:36.390Z,16.60
2022-08-07T23:24:33.802Z,16.60
2022-08-07T23:28:22.401Z,16.60
2022-08-07T23:32:49.147Z,16.60
2022-08-07T23:34:41.431Z,16.50
2022-08-07T23:37:30.916Z,16.40
2022-08-07T23:40:26.383Z,16.40
2022-08-07T23:43:16.746Z,16.40
2022-08-07T23:46:10.952Z,16.40
2022-08-07T23:48:47.046Z,16.40
2022-08-07T23:52:58.763Z,16.40
2022-08-07T23:54:55.326Z,16.40
2022-08-07T23:57:39.767Z,16.40
